createdAt,value
2022-08-19T00:02:06.568Z,100.00
2022-08-19T00:04:38.108Z,100.00
2022-08-19T00:07:08.155Z,100.00
2022-08-19T00:09:36.644Z,100.00
2022-08-19T00:12:05.964Z,100.00
2022-08-19T00:14:34.539Z,100.00
2022-08-19T00:17:03.578Z,100.00
2022-08-19T00:19:32.548Z,100.00
2022-08-19T00:22:03.516Z,100.00
2022-08-19T00:24:32.111Z,100.00
2022-08-19T00:27:25.135Z,100.00
2022-08-19T00:29:52.554Z,100.00
2022-08-19T00:32:23.857Z,100.00
2022-08-19T00:34:54.614Z,100.00
2022-08-19T00:37:27.247Z,100.00
2022-08-19T00:39:56.944Z,100.00
2022-08-19T00:42:29.663Z,100.00
2022-08-19T00:44:58.458Z,100.00
2022-08-19T00:47:26.877Z,100.00
2022-08-19T00:49:59.198Z,100.00
2022-08-19T00:52:32.069Z,100.00
2022-08-19T00:55:01.640Z,100.00
2022-08-19T00:57:35.817Z,100.00
2022-08-19T01:00:09.826Z,100.00
2022-08-19T01:02:38.720Z,100.00
2022-08-19T01:05:11.138Z,100.00
2022-08-19T01:07:43.456Z,100.00
2022-08-19T01:10:14.797Z,100.00
2022-08-19T01:12:47.069Z,100.00
2022-08-19T01:15:20.736Z,100.00
2022-08-19T01:17:50.665Z,100.00
2022-08-19T01:20:22.647Z,100.00
2022-08-19T01:22:55.819Z,100.00
2022-08-19T01:25:28.846Z,100.00
2022-08-19T01:28:01.643Z,100.00
2022-08-19T01:30:38.860Z,100.00
2022-08-19T01:33:07.351Z,100.00
2022-08-19T01:35:38.495Z,100.00
2022-08-19T01:38:11.286Z,100.00
2022-08-19T01:40:43.364Z,100.00
2022-08-19T01:43:12.291Z,100.00
2022-08-19T01:45:41.393Z,100.00
2022-08-19T01:48:10.547Z,100.00
2022-08-19T01:50:39.404Z,100.00
2022-08-19T01:53:12.006Z,100.00
2022-08-19T01:55:44.348Z,100.00
2022-08-19T01:58:17.483Z,100.00
2022-08-19T02:00:47.491Z,100.00
2022-08-19T02:03:17.242Z,100.00
2022-08-19T02:05:46.836Z,100.00
2022-08-19T02:08:17.343Z,100.00
2022-08-19T02:10:46.772Z,100.00
2022-08-19T02:13:16.080Z,100.00
2022-08-19T02:15:49.781Z,100.00
2022-08-19T02:18:18.650Z,100.00
2022-08-19T02:20:48.200Z,100.00
2022-08-19T02:23:18.853Z,100.00
2022-08-19T02:25:50.045Z,100.00
2022-08-19T02:28:19.185Z,100.00
2022-08-19T02:30:49.411Z,100.00
2022-08-19T02:33:19.107Z,100.00
2022-08-19T02:35:48.644Z,100.00
2022-08-19T02:38:27.252Z,100.00
2022-08-19T02:40:59.056Z,100.00
2022-08-19T02:43:33.855Z,100.00
2022-08-19T02:46:04.381Z,100.00
2022-08-19T02:48:34.123Z,100.00
2022-08-19T02:51:02.735Z,100.00
2022-08-19T02:53:33.410Z,100.00
2022-08-19T02:56:01.868Z,100.00
2022-08-19T02:58:30.630Z,100.00
2022-08-19T03:00:59.775Z,100.00
2022-08-19T03:03:29.107Z,100.00
2022-08-19T03:06:09.517Z,100.00
2022-08-19T03:08:41.231Z,100.00
2022-08-19T03:11:16.273Z,100.00
2022-08-19T03:13:45.601Z,100.00
2022-08-19T03:16:14.849Z,100.00
2022-08-19T03:18:47.549Z,100.00
2022-08-19T03:21:19.056Z,100.00
2022-08-19T03:23:49.290Z,100.00
2022-08-19T03:26:19.900Z,100.00
2022-08-19T03:28:57.685Z,100.00
2022-08-19T03:31:45.709Z,100.00
2022-08-19T03:34:20.805Z,100.00
2022-08-19T03:36:49.673Z,100.00
2022-08-19T03:39:20.801Z,100.00
2022-08-19T03:42:32.424Z,100.00
2022-08-19T03:44:43.478Z,100.00
2022-08-19T03:47:17.928Z,100.00
2022-08-19T03:49:47.787Z,100.00
2022-08-19T03:52:17.372Z,100.00
2022-08-19T03:54:47.897Z,100.00
2022-08-19T03:57:16.409Z,100.00
2022-08-19T03:59:45.261Z,100.00
2022-08-19T04:02:15.200Z,100.00
2022-08-19T04:04:45.769Z,100.00
2022-08-19T04:07:17.352Z,100.00
2022-08-19T04:09:47.556Z,100.00
2022-08-19T04:12:17.214Z,100.00
2022-08-19T04:14:45.746Z,100.00
2022-08-19T04:17:15.386Z,100.00
2022-08-19T04:19:45.710Z,100.00
2022-08-19T04:22:14.379Z,100.00
2022-08-19T04:24:43.050Z,100.00
2022-08-19T04:27:13.313Z,100.00
2022-08-19T04:29:42.445Z,100.00
2022-08-19T04:32:16.464Z,100.00
2022-08-19T04:35:01.253Z,100.00
2022-08-19T04:37:35.384Z,100.00
2022-08-19T04:40:25.425Z,100.00
2022-08-19T04:42:56.056Z,100.00
2022-08-19T04:45:25.340Z,100.00
2022-08-19T04:48:26.508Z,100.00
2022-08-19T04:50:48.190Z,100.00
2022-08-19T04:53:17.159Z,100.00
2022-08-19T04:55:46.038Z,100.00
2022-08-19T04:58:17.565Z,100.00
2022-08-19T05:00:46.560Z,100.00
2022-08-19T05:03:18.309Z,100.00
2022-08-19T05:05:49.882Z,100.00
2022-08-19T05:08:31.513Z,100.00
2022-08-19T05:11:01.214Z,100.00
2022-08-19T05:13:31.629Z,100.00
2022-08-19T05:16:01.700Z,100.00
2022-08-19T05:18:47.910Z,100.00
2022-08-19T05:21:37.095Z,100.00
2022-08-19T05:24:09.575Z,100.00
2022-08-19T05:26:38.555Z,100.00
2022-08-19T05:29:10.316Z,100.00
2022-08-19T05:31:41.611Z,100.00
2022-08-19T05:34:18.457Z,100.00
2022-08-19T05:36:50.508Z,100.00
2022-08-19T05:39:22.248Z,100.00
2022-08-19T05:41:54.099Z,100.00
2022-08-19T05:44:27.831Z,100.00
2022-08-19T05:46:56.920Z,100.00
2022-08-19T05:49:26.545Z,100.00
2022-08-19T05:51:56.131Z,100.00
2022-08-19T05:54:25.216Z,100.00
2022-08-19T05:56:55.220Z,100.00
2022-08-19T05:59:25.063Z,100.00
2022-08-19T06:01:58.235Z,100.00
2022-08-19T06:04:27.895Z,100.00
2022-08-19T06:06:57.725Z,100.00
2022-08-19T06:09:26.941Z,100.00
2022-08-19T06:12:00.879Z,100.00
2022-08-19T06:14:32.204Z,100.00
2022-08-19T06:17:07.066Z,100.00
2022-08-19T06:19:40.764Z,100.00
2022-08-19T06:22:12.721Z,100.00
2022-08-19T06:24:42.489Z,100.00
2022-08-19T06:27:12.848Z,100.00
2022-08-19T06:29:42.010Z,100.00
2022-08-19T06:32:12.366Z,100.00
2022-08-19T06:34:42.243Z,100.00
2022-08-19T06:37:11.187Z,100.00
2022-08-19T06:39:41.451Z,99.24
2022-08-19T06:42:12.823Z,98.15
2022-08-19T06:44:48.847Z,97.84
2022-08-19T06:47:28.944Z,96.82
2022-08-19T06:50:02.977Z,96.95
2022-08-19T06:52:34.041Z,95.85
2022-08-19T06:55:06.209Z,95.33
2022-08-19T06:57:36.287Z,94.31
2022-08-19T07:00:08.799Z,93.42
2022-08-19T07:02:48.032Z,93.30
2022-08-19T07:05:26.769Z,92.97
2022-08-19T07:07:58.250Z,92.10
2022-08-19T07:10:32.783Z,91.29
2022-08-19T07:13:01.725Z,90.92
2022-08-19T07:15:30.407Z,90.24
2022-08-19T07:18:00.457Z,89.44
2022-08-19T07:20:29.184Z,88.12
2022-08-19T07:22:58.835Z,87.96
2022-08-19T07:25:32.443Z,86.79
2022-08-19T07:28:02.526Z,87.10
2022-08-19T07:30:31.708Z,87.29
2022-08-19T07:33:03.622Z,87.69
2022-08-19T07:35:35.946Z,87.51
2022-08-19T07:38:05.284Z,86.88
2022-08-19T07:40:34.329Z,86.47
2022-08-19T07:43:03.439Z,85.99
2022-08-19T07:45:34.865Z,84.64
2022-08-19T07:48:06.255Z,84.46
2022-08-19T07:50:38.957Z,84.13
2022-08-19T07:53:08.325Z,83.38
2022-08-19T07:55:42.111Z,84.01
2022-08-19T07:58:13.990Z,83.65
2022-08-19T08:00:43.477Z,83.01
2022-08-19T08:03:14.315Z,81.46
2022-08-19T08:06:01.253Z,80.10
2022-08-19T08:08:48.578Z,80.55
2022-08-19T08:11:20.654Z,80.47
2022-08-19T08:14:01.210Z,79.25
2022-08-19T08:16:39.624Z,78.36
2022-08-19T08:19:25.770Z,79.40
2022-08-19T08:21:55.823Z,77.21
2022-08-19T08:24:28.588Z,77.72
2022-08-19T08:26:58.893Z,76.64
2022-08-19T08:29:34.827Z,77.84
2022-08-19T08:32:13.855Z,76.28
2022-08-19T08:34:44.544Z,76.76
2022-08-19T08:37:16.308Z,75.24
2022-08-19T08:39:45.275Z,74.08
2022-08-19T08:42:23.058Z,74.47
2022-08-19T08:44:59.285Z,74.12
2022-08-19T08:47:33.851Z,74.24
2022-08-19T08:50:09.032Z,73.48
2022-08-19T08:52:43.766Z,73.45
2022-08-19T08:55:15.662Z,73.37
2022-08-19T08:57:56.066Z,74.25
2022-08-19T09:00:27.861Z,73.57
2022-08-19T09:02:56.873Z,70.59
2022-08-19T09:05:37.665Z,72.47
2022-08-19T09:08:19.280Z,72.71
2022-08-19T09:10:55.227Z,73.52
2022-08-19T09:13:37.502Z,70.16
2022-08-19T09:16:09.763Z,72.57
2022-08-19T09:18:43.191Z,71.28
2022-08-19T09:21:13.456Z,71.10
2022-08-19T09:23:43.773Z,71.16
2022-08-19T09:26:16.545Z,70.04
2022-08-19T09:28:48.819Z,70.70
2022-08-19T09:31:20.062Z,67.63
2022-08-19T09:33:49.310Z,68.85
2022-08-19T09:36:31.287Z,67.23
2022-08-19T09:39:05.179Z,69.08
2022-08-19T09:41:47.604Z,67.51
2022-08-19T09:44:18.836Z,66.29
2022-08-19T09:46:49.339Z,66.13
2022-08-19T09:49:19.844Z,66.50
2022-08-19T09:51:55.565Z,63.47
2022-08-19T09:54:25.549Z,63.97
2022-08-19T09:56:54.930Z,65.01
2022-08-19T09:59:23.977Z,64.42
2022-08-19T10:01:53.238Z,61.24
2022-08-19T10:04:23.393Z,62.16
2022-08-19T10:06:58.494Z,60.42
2022-08-19T10:09:34.364Z,63.27
2022-08-19T10:12:06.080Z,63.00
2022-08-19T10:14:36.091Z,62.57
2022-08-19T10:17:19.873Z,62.50
2022-08-19T10:19:55.847Z,62.45
2022-08-19T10:22:26.386Z,61.35
2022-08-19T10:24:55.222Z,61.67
2022-08-19T10:27:23.960Z,61.55
2022-08-19T10:29:55.014Z,60.90
2022-08-19T10:32:34.265Z,59.86
2022-08-19T10:35:06.124Z,61.08
2022-08-19T10:37:36.659Z,58.78
2022-08-19T10:40:25.394Z,59.74
2022-08-19T10:42:54.564Z,60.69
2022-08-19T10:45:28.281Z,58.52
2022-08-19T10:47:56.923Z,60.96
2022-08-19T10:50:50.657Z,60.47
2022-08-19T10:53:24.932Z,57.23
2022-08-19T10:56:11.910Z,56.29
2022-08-19T10:58:41.653Z,55.53
2022-08-19T11:01:10.576Z,56.22
2022-08-19T11:03:39.250Z,56.52
2022-08-19T11:06:09.833Z,55.38
2022-08-19T11:08:42.069Z,55.10
2022-08-19T11:11:11.258Z,54.60
2022-08-19T11:13:42.342Z,55.97
2022-08-19T11:16:15.210Z,54.24
2022-08-19T11:18:45.976Z,55.64
2022-08-19T11:21:18.116Z,55.18
2022-08-19T11:23:50.679Z,54.86
2022-08-19T11:26:20.906Z,54.91
2022-08-19T11:28:52.019Z,53.75
2022-08-19T11:31:23.948Z,53.09
2022-08-19T11:33:59.105Z,52.20
2022-08-19T11:36:28.520Z,54.28
2022-08-19T11:39:00.015Z,53.63
2022-08-19T11:41:29.332Z,54.50
2022-08-19T11:43:58.192Z,54.87
2022-08-19T11:46:30.834Z,54.28
2022-08-19T11:49:00.243Z,55.74
2022-08-19T11:51:30.933Z,54.44
2022-08-19T11:54:01.948Z,52.89
2022-08-19T11:56:31.034Z,47.18
2022-08-19T11:59:00.107Z,54.96
2022-08-19T12:01:29.027Z,52.84
2022-08-19T12:03:59.042Z,52.80
2022-08-19T12:06:32.814Z,52.81
2022-08-19T12:09:06.834Z,51.68
2022-08-19T12:11:35.919Z,53.12
2022-08-19T12:14:04.919Z,52.78
2022-08-19T12:16:37.821Z,51.82
2022-08-19T12:19:09.529Z,50.75
2022-08-19T12:21:38.458Z,52.21
2022-08-19T12:24:09.575Z,51.22
2022-08-19T12:26:52.765Z,50.78
2022-08-19T12:29:29.733Z,49.75
2022-08-19T12:32:03.855Z,48.45
2022-08-19T12:34:34.482Z,47.97
2022-08-19T12:37:05.660Z,47.96
2022-08-19T12:39:39.589Z,47.36
2022-08-19T12:42:09.575Z,48.52
2022-08-19T12:44:38.757Z,48.16
2022-08-19T12:47:11.228Z,49.54
2022-08-19T12:49:53.979Z,48.66
2022-08-19T12:52:25.705Z,47.21
2022-08-19T12:54:57.077Z,46.79
2022-08-19T12:57:32.454Z,47.31
2022-08-19T13:00:05.771Z,48.48
2022-08-19T13:02:38.836Z,47.22
2022-08-19T13:05:11.125Z,47.28
2022-08-19T13:07:40.929Z,48.99
2022-08-19T13:10:13.533Z,49.51
2022-08-19T13:12:43.050Z,47.76
2022-08-19T13:15:15.227Z,46.94
2022-08-19T13:17:44.427Z,46.21
2022-08-19T13:20:13.628Z,46.38
2022-08-19T13:22:42.088Z,46.35
2022-08-19T13:25:13.157Z,45.44
2022-08-19T13:27:42.879Z,46.68
2022-08-19T13:30:31.574Z,47.88
2022-08-19T13:33:16.637Z,47.08
2022-08-19T13:35:48.889Z,47.02
2022-08-19T13:38:19.762Z,46.90
2022-08-19T13:40:50.735Z,46.18
2022-08-19T13:43:23.378Z,45.97
2022-08-19T13:45:53.810Z,47.27
2022-08-19T13:48:23.313Z,48.06
2022-08-19T13:50:51.978Z,48.24
2022-08-19T13:53:21.359Z,48.21
2022-08-19T13:55:52.287Z,46.59
2022-08-19T13:58:20.930Z,46.77
2022-08-19T14:00:50.641Z,46.58
2022-08-19T14:03:19.316Z,46.95
2022-08-19T14:05:49.089Z,48.55
2022-08-19T14:08:18.380Z,48.11
2022-08-19T14:10:47.324Z,48.45
2022-08-19T14:13:23.301Z,47.51
2022-08-19T14:15:53.874Z,47.62
2022-08-19T14:18:22.713Z,50.00
2022-08-19T14:20:55.124Z,48.68
2022-08-19T14:23:24.879Z,48.38
2022-08-19T14:26:00.811Z,49.33
2022-08-19T14:28:33.884Z,49.22
2022-08-19T14:31:02.834Z,50.50
2022-08-19T14:33:31.696Z,51.55
2022-08-19T14:36:01.860Z,51.34
2022-08-19T14:38:32.640Z,49.73
2022-08-19T14:41:17.849Z,48.70
2022-08-19T14:43:49.521Z,51.59
2022-08-19T14:46:18.994Z,48.45
2022-08-19T14:48:50.731Z,52.20
2022-08-19T14:51:27.586Z,52.85
2022-08-19T14:53:57.114Z,53.31
2022-08-19T14:56:28.453Z,52.37
2022-08-19T14:59:02.221Z,51.45
2022-08-19T15:01:31.922Z,51.89
2022-08-19T15:04:04.445Z,52.50
2022-08-19T15:06:34.705Z,51.89
2022-08-19T15:09:05.072Z,49.62
2022-08-19T15:11:40.935Z,52.21
2022-08-19T15:14:11.407Z,53.50
2022-08-19T15:16:42.940Z,52.93
2022-08-19T15:19:12.962Z,53.82
2022-08-19T15:21:42.653Z,53.35
2022-08-19T15:24:11.637Z,53.40
2022-08-19T15:26:40.643Z,52.60
2022-08-19T15:29:10.694Z,53.28
2022-08-19T15:31:40.404Z,52.81
2022-08-19T15:34:09.541Z,52.77
2022-08-19T15:36:38.815Z,52.31
2022-08-19T15:39:10.338Z,52.37
2022-08-19T15:41:39.766Z,49.22
2022-08-19T15:44:13.505Z,52.55
2022-08-19T15:46:45.062Z,52.34
2022-08-19T15:49:14.064Z,50.35
2022-08-19T15:51:45.569Z,53.30
2022-08-19T15:54:17.533Z,52.16
2022-08-19T15:57:04.028Z,52.61
2022-08-19T15:59:53.234Z,52.43
2022-08-19T16:02:42.195Z,52.55
2022-08-19T16:05:32.013Z,52.24
2022-08-19T16:08:00.535Z,51.82
2022-08-19T16:10:29.473Z,52.03
2022-08-19T16:12:59.780Z,51.98
2022-08-19T16:15:31.956Z,51.86
2022-08-19T16:18:03.196Z,52.92
2022-08-19T16:20:33.176Z,53.46
2022-08-19T16:23:06.089Z,54.00
2022-08-19T16:25:34.741Z,54.34
2022-08-19T16:28:07.859Z,54.58
2022-08-19T16:30:40.724Z,54.89
2022-08-19T16:33:10.255Z,54.85
2022-08-19T16:35:43.663Z,54.84
2022-08-19T16:38:15.702Z,55.04
2022-08-19T16:40:46.736Z,54.99
2022-08-19T16:43:15.478Z,55.06
2022-08-19T16:45:45.312Z,55.09
2022-08-19T16:48:14.491Z,55.23
2022-08-19T16:50:49.656Z,55.42
2022-08-19T16:53:21.563Z,55.99
2022-08-19T16:55:53.586Z,56.26
2022-08-19T16:58:28.488Z,56.63
2022-08-19T17:01:03.997Z,56.82
2022-08-19T17:03:36.149Z,57.20
2022-08-19T17:06:18.248Z,57.27
2022-08-19T17:08:51.632Z,57.58
2022-08-19T17:11:21.309Z,58.07
2022-08-19T17:13:51.127Z,58.26
2022-08-19T17:16:25.019Z,58.78
2022-08-19T17:18:55.548Z,59.09
2022-08-19T17:21:29.056Z,59.47
2022-08-19T17:23:58.446Z,59.81
2022-08-19T17:26:27.662Z,60.42
2022-08-19T17:28:59.323Z,60.83
2022-08-19T17:31:32.667Z,61.09
2022-08-19T17:34:04.428Z,61.23
2022-08-19T17:36:35.282Z,61.62
2022-08-19T17:39:05.428Z,61.93
2022-08-19T17:41:35.366Z,62.40
2022-08-19T17:44:04.779Z,62.74
2022-08-19T17:46:35.226Z,63.35
2022-08-19T17:49:04.219Z,63.71
2022-08-19T17:51:45.249Z,63.74
2022-08-19T17:54:16.621Z,63.54
2022-08-19T17:56:48.077Z,64.21
2022-08-19T17:59:16.886Z,64.26
2022-08-19T18:01:52.959Z,64.39
2022-08-19T18:04:25.204Z,64.64
2022-08-19T18:06:56.138Z,64.50
2022-08-19T18:09:27.030Z,64.80
2022-08-19T18:11:58.298Z,65.12
2022-08-19T18:14:35.568Z,65.34
2022-08-19T18:17:10.156Z,65.31
2022-08-19T18:19:43.059Z,65.65
2022-08-19T18:22:15.034Z,66.24
2022-08-19T18:24:45.913Z,66.27
2022-08-19T18:27:15.058Z,66.54
2022-08-19T18:29:45.608Z,66.93
2022-08-19T18:32:23.776Z,66.90
2022-08-19T18:34:56.327Z,67.20
2022-08-19T18:37:27.103Z,67.34
2022-08-19T18:40:13.677Z,68.01
2022-08-19T18:43:03.045Z,68.09
2022-08-19T18:45:58.415Z,68.71
2022-08-19T18:48:47.197Z,68.64
2022-08-19T18:51:17.499Z,69.03
2022-08-19T18:53:49.837Z,69.19
2022-08-19T18:56:24.115Z,69.03
2022-08-19T18:58:53.311Z,69.37
2022-08-19T19:01:27.047Z,69.64
2022-08-19T19:04:01.826Z,69.66
2022-08-19T19:06:35.998Z,70.05
2022-08-19T19:09:06.401Z,69.62
2022-08-19T19:11:38.469Z,69.79
2022-08-19T19:14:19.164Z,70.03
2022-08-19T19:17:03.074Z,70.41
2022-08-19T19:19:33.806Z,70.39
2022-08-19T19:22:04.783Z,70.43
2022-08-19T19:24:34.282Z,69.96
2022-08-19T19:27:07.058Z,69.74
2022-08-19T19:29:36.705Z,69.77
2022-08-19T19:32:08.304Z,69.93
2022-08-19T19:34:41.005Z,70.27
2022-08-19T19:37:09.961Z,70.12
2022-08-19T19:39:45.935Z,71.02
2022-08-19T19:42:20.374Z,71.34
2022-08-19T19:44:51.148Z,71.86
2022-08-19T19:47:24.792Z,71.60
2022-08-19T19:50:14.421Z,71.41
2022-08-19T19:52:45.803Z,71.48
2022-08-19T19:55:18.549Z,71.09
2022-08-19T19:57:48.176Z,71.01
2022-08-19T20:00:19.168Z,70.79
2022-08-19T20:02:50.349Z,71.14
2022-08-19T20:05:21.774Z,72.44
2022-08-19T20:08:09.041Z,71.24
2022-08-19T20:10:39.066Z,71.13
2022-08-19T20:13:09.489Z,71.22
2022-08-19T20:15:42.695Z,71.33
2022-08-19T20:18:14.468Z,71.70
2022-08-19T20:20:45.251Z,72.35
2022-08-19T20:23:13.875Z,72.62
2022-08-19T20:25:43.025Z,72.73
2022-08-19T20:28:12.626Z,73.17
2022-08-19T20:30:46.543Z,73.31
2022-08-19T20:33:18.068Z,73.46
2022-08-19T20:35:48.331Z,73.69
2022-08-19T20:38:17.341Z,73.67
2022-08-19T20:40:46.618Z,73.97
2022-08-19T20:43:15.920Z,74.16
2022-08-19T20:45:47.247Z,74.80
2022-08-19T20:48:18.332Z,74.79
2022-08-19T20:50:49.204Z,74.82
2022-08-19T20:53:23.350Z,74.97
2022-08-19T20:55:59.745Z,74.96
2022-08-19T20:58:31.208Z,75.29
2022-08-19T21:01:11.898Z,75.24
2022-08-19T21:03:43.312Z,75.50
2022-08-19T21:06:14.699Z,75.64
2022-08-19T21:08:44.297Z,75.45
2022-08-19T21:11:14.839Z,74.88
2022-08-19T21:13:50.335Z,75.63
2022-08-19T21:16:21.217Z,75.55
2022-08-19T21:18:50.028Z,75.42
2022-08-19T21:21:20.493Z,75.64
2022-08-19T21:23:49.738Z,75.31
2022-08-19T21:26:18.769Z,75.46
2022-08-19T21:28:48.507Z,75.63
2022-08-19T21:31:18.241Z,75.47
2022-08-19T21:33:47.030Z,75.64
2022-08-19T21:36:17.863Z,75.68
2022-08-19T21:38:48.016Z,75.66
2022-08-19T21:41:17.199Z,75.85
2022-08-19T21:43:47.341Z,76.16
2022-08-19T21:46:17.642Z,76.25
2022-08-19T21:48:46.788Z,77.19
2022-08-19T21:51:17.333Z,78.23
2022-08-19T21:53:52.911Z,79.66
2022-08-19T21:56:22.919Z,80.36
2022-08-19T21:58:52.097Z,81.12
2022-08-19T22:01:20.749Z,81.78
2022-08-19T22:03:49.339Z,82.61
2022-08-19T22:06:22.991Z,83.39
2022-08-19T22:08:55.694Z,84.36
2022-08-19T22:11:26.916Z,85.04
2022-08-19T22:13:57.045Z,85.06
2022-08-19T22:16:26.239Z,85.84
2022-08-19T22:18:54.837Z,86.13
2022-08-19T22:21:40.327Z,86.39
2022-08-19T22:24:12.551Z,86.75
2022-08-19T22:26:41.823Z,87.49
2022-08-19T22:29:11.348Z,88.05
2022-08-19T22:31:54.253Z,88.26
2022-08-19T22:34:26.946Z,88.50
2022-08-19T22:36:57.980Z,88.66
2022-08-19T22:39:28.958Z,88.81
2022-08-19T22:41:58.770Z,89.31
2022-08-19T22:44:28.414Z,89.42
2022-08-19T22:46:56.943Z,89.91
2022-08-19T22:49:25.673Z,89.78
2022-08-19T22:52:12.079Z,90.10
2022-08-19T22:54:42.621Z,90.44
2022-08-19T22:57:11.551Z,90.03
2022-08-19T22:59:40.438Z,90.19
2022-08-19T23:02:10.587Z,90.24
2022-08-19T23:04:39.254Z,90.44
2022-08-19T23:07:08.553Z,90.93
2022-08-19T23:09:38.025Z,91.21
2022-08-19T23:12:10.455Z,91.21
2022-08-19T23:14:40.121Z,91.34
2022-08-19T23:17:09.737Z,91.58
2022-08-19T23:19:39.270Z,91.78
2022-08-19T23:22:08.872Z,92.00
2022-08-19T23:24:37.452Z,92.12
2022-08-19T23:27:22.858Z,92.63
2022-08-19T23:30:15.085Z,92.72
2022-08-19T23:32:46.477Z,93.03
2022-08-19T23:35:15.816Z,95.92
2022-08-19T23:37:45.152Z,93.81
2022-08-19T23:40:17.347Z,94.40
2022-08-19T23:42:49.274Z,94.90
2022-08-19T23:45:23.795Z,94.94
2022-08-19T23:47:55.003Z,94.92
2022-08-19T23:50:25.281Z,95.24
2022-08-19T23:52:58.278Z,94.87
2022-08-19T23:55:30.505Z,95.16
2022-08-19T23:58:00.110Z,95.69
